createdAt,value
2023-12-29T00:01:06.284Z,96422.09
2023-12-29T00:03:34.031Z,96428.78
2023-12-29T00:06:04.299Z,96420.78
2023-12-29T00:08:32.893Z,96428.44
2023-12-29T00:11:01.020Z,96436.66
2023-12-29T00:13:28.670Z,96423.59
2023-12-29T00:15:57.921Z,96427.31
2023-12-29T00:18:25.984Z,96424.88
2023-12-29T00:21:06.053Z,96423.50
2023-12-29T00:23:35.503Z,96421.06
2023-12-29T00:26:03.112Z,96419.66
2023-12-29T00:28:30.709Z,96412.75
2023-12-29T00:31:02.024Z,96419.34
2023-12-29T00:33:32.937Z,96416.06
2023-12-29T00:36:00.793Z,96414.69
2023-12-29T00:38:28.801Z,96417.56
2023-12-29T00:40:56.420Z,96413.28
2023-12-29T00:43:24.970Z,96411.91
2023-12-29T00:45:52.821Z,96401.50
2023-12-29T00:48:22.026Z,96402.53
2023-12-29T00:50:49.706Z,96403.00
2023-12-29T00:53:17.363Z,96392.59
2023-12-29T00:55:44.929Z,96391.00
2023-12-29T00:58:12.597Z,96386.47
2023-12-29T01:00:40.318Z,96389.38
2023-12-29T01:03:08.077Z,96380.81
2023-12-29T01:05:37.075Z,96382.88
2023-12-29T01:08:04.991Z,96389.81
2023-12-29T01:10:32.559Z,96383.13
2023-12-29T01:13:00.252Z,96379.88
2023-12-29T01:15:28.146Z,96381.97
2023-12-29T01:17:55.785Z,96385.44
2023-12-29T01:20:23.419Z,96391.56
2023-12-29T01:22:52.497Z,96395.50
2023-12-29T01:25:20.090Z,96406.38
2023-12-29T01:27:48.225Z,96392.25
2023-12-29T01:30:16.637Z,96386.59
2023-12-29T01:32:44.318Z,96390.88
2023-12-29T01:35:12.522Z,96385.78
2023-12-29T01:37:40.184Z,96388.44
2023-12-29T01:40:10.724Z,96395.84
2023-12-29T01:42:38.511Z,96390.53
2023-12-29T01:45:08.111Z,96389.94
2023-12-29T01:47:35.706Z,96393.66
2023-12-29T01:50:03.554Z,96398.16
2023-12-29T01:52:31.218Z,96398.38
2023-12-29T01:54:59.294Z,96391.22
2023-12-29T01:57:28.423Z,96387.75
2023-12-29T01:59:56.062Z,96381.84
2023-12-29T02:02:23.724Z,96401.72
2023-12-29T02:04:51.520Z,96386.00
2023-12-29T02:07:20.636Z,96406.25
2023-12-29T02:09:48.513Z,96412.00
2023-12-29T02:12:16.115Z,96397.94
2023-12-29T02:14:45.104Z,96406.94
2023-12-29T02:17:18.980Z,96390.41
2023-12-29T02:19:50.266Z,96401.84
2023-12-29T02:22:18.008Z,96391.44
2023-12-29T02:24:50.630Z,96389.81
2023-12-29T02:27:26.026Z,96406.00
2023-12-29T02:30:04.175Z,96405.41
2023-12-29T02:32:32.275Z,96389.69
2023-12-29T02:35:02.030Z,96390.53
2023-12-29T02:37:31.200Z,96404.84
2023-12-29T02:40:01.097Z,96397.66
2023-12-29T02:42:28.685Z,96387.28
2023-12-29T02:44:56.305Z,96378.50
2023-12-29T02:47:24.008Z,96378.97
2023-12-29T02:49:52.007Z,96371.78
2023-12-29T02:52:19.777Z,96379.97
2023-12-29T02:54:47.396Z,96383.69
2023-12-29T02:57:16.359Z,96389.47
2023-12-29T02:59:43.916Z,96388.88
2023-12-29T03:02:11.518Z,96394.19
2023-12-29T03:04:39.152Z,96396.84
2023-12-29T03:07:07.210Z,96396.28
2023-12-29T03:09:34.825Z,96386.44
2023-12-29T03:12:02.471Z,96382.19
2023-12-29T03:14:31.520Z,96385.63
2023-12-29T03:16:59.354Z,96387.72
2023-12-29T03:19:27.619Z,96383.22
2023-12-29T03:21:55.496Z,96381.81
2023-12-29T03:24:23.375Z,96371.44
2023-12-29T03:26:50.996Z,96370.59
2023-12-29T03:29:18.646Z,96366.34
2023-12-29T03:31:47.748Z,96364.72
2023-12-29T03:34:15.779Z,96363.94
2023-12-29T03:36:43.604Z,96369.25
2023-12-29T03:39:11.260Z,96367.59
2023-12-29T03:41:39.169Z,96374.78
2023-12-29T03:44:07.163Z,96365.41
2023-12-29T03:46:35.629Z,96360.31
2023-12-29T03:49:04.849Z,96363.22
2023-12-29T03:51:32.764Z,96367.50
2023-12-29T03:54:00.415Z,96366.66
2023-12-29T03:56:28.031Z,96365.06
2023-12-29T03:58:55.723Z,96360.78
2023-12-29T04:01:23.978Z,96351.41
2023-12-29T04:03:52.121Z,96352.25
2023-12-29T04:06:21.052Z,96352.47
2023-12-29T04:08:48.663Z,96358.81
2023-12-29T04:11:16.243Z,96361.69
2023-12-29T04:13:43.822Z,96355.81
2023-12-29T04:16:11.565Z,96359.25
2023-12-29T04:18:39.275Z,96369.88
2023-12-29T04:21:06.976Z,96364.81
2023-12-29T04:23:35.896Z,96358.13
2023-12-29T04:26:03.453Z,96361.56
2023-12-29T04:28:31.021Z,96372.41
2023-12-29T04:30:58.697Z,96366.31
2023-12-29T04:33:26.301Z,96361.78
2023-12-29T04:35:53.974Z,96367.09
2023-12-29T04:38:21.821Z,96368.34
2023-12-29T04:40:50.735Z,96363.03
2023-12-29T04:43:18.308Z,96360.59
2023-12-29T04:45:45.891Z,96369.63
2023-12-29T04:48:13.630Z,96365.31
2023-12-29T04:50:41.260Z,96356.56
2023-12-29T04:53:08.824Z,96354.13
2023-12-29T04:55:36.431Z,96353.53
2023-12-29T04:58:05.814Z,96352.50
2023-12-29T05:00:33.647Z,96359.66
2023-12-29T05:03:01.411Z,96363.56
2023-12-29T05:05:29.071Z,96363.34
2023-12-29T05:07:56.746Z,96360.91
2023-12-29T05:10:24.432Z,96365.44
2023-12-29T05:12:52.060Z,96356.41
2023-12-29T05:15:21.021Z,96353.19
2023-12-29T05:17:48.604Z,96345.66
2023-12-29T05:20:16.322Z,96349.13
2023-12-29T05:22:43.914Z,96357.31
2023-12-29T05:25:11.839Z,96359.97
2023-12-29T05:27:39.572Z,96360.81
2023-12-29T05:30:08.559Z,96365.88
2023-12-29T05:32:37.664Z,96353.06
2023-12-29T05:35:06.104Z,96365.50
2023-12-29T05:37:33.760Z,96361.25
2023-12-29T05:40:01.476Z,96364.13
2023-12-29T05:42:29.147Z,96356.16
2023-12-29T05:44:56.784Z,96355.34
2023-12-29T05:47:24.453Z,96352.94
2023-12-29T05:49:53.685Z,96352.94
2023-12-29T05:52:21.479Z,96357.63
2023-12-29T05:54:50.406Z,96346.22
2023-12-29T05:57:18.261Z,96348.88
2023-12-29T05:59:45.889Z,96354.41
2023-12-29T06:02:13.549Z,96351.97
2023-12-29T06:04:41.222Z,96351.19
2023-12-29T06:07:10.321Z,96357.50
2023-12-29T06:09:38.794Z,96354.88
2023-12-29T06:12:07.032Z,96356.72
2023-12-29T06:14:34.756Z,96351.41
2023-12-29T06:17:02.871Z,96353.47
2023-12-29T06:19:33.282Z,96345.50
2023-12-29T06:22:01.018Z,96359.00
2023-12-29T06:24:30.074Z,96349.19
2023-12-29T06:26:57.701Z,96347.56
2023-12-29T06:29:25.337Z,96341.69
2023-12-29T06:31:52.980Z,96348.81
2023-12-29T06:34:20.827Z,96355.19
2023-12-29T06:36:48.580Z,96354.34
2023-12-29T06:39:16.256Z,96354.59
2023-12-29T06:41:46.101Z,96361.75
2023-12-29T06:44:13.756Z,96364.41
2023-12-29T06:46:41.735Z,96348.47
2023-12-29T06:49:10.851Z,96349.50
2023-12-29T06:51:40.540Z,96353.44
2023-12-29T06:54:08.318Z,96356.09
2023-12-29T06:56:35.940Z,96350.78
2023-12-29T06:59:05.271Z,96355.03
2023-12-29T07:01:33.026Z,96356.09
2023-12-29T07:04:00.746Z,96362.41
2023-12-29T07:06:28.405Z,96374.88
2023-12-29T07:08:56.051Z,96372.22
2023-12-29T07:11:23.719Z,96366.13
2023-12-29T07:13:51.365Z,96366.34
2023-12-29T07:16:20.892Z,96371.66
2023-12-29T07:18:48.831Z,96369.00
2023-12-29T07:21:19.939Z,96376.34
2023-12-29T07:23:48.128Z,96373.47
2023-12-29T07:26:15.945Z,96374.31
2023-12-29T07:28:43.592Z,96385.72
2023-12-29T07:31:11.325Z,96385.16
2023-12-29T07:33:40.520Z,96379.00
2023-12-29T07:36:08.529Z,96384.53
2023-12-29T07:38:36.206Z,96378.22
2023-12-29T07:41:03.911Z,96385.38
2023-12-29T07:43:33.145Z,96383.72
2023-12-29T07:46:00.865Z,96383.28
2023-12-29T07:48:28.668Z,96380.09
2023-12-29T07:51:01.302Z,96390.16
2023-12-29T07:53:28.970Z,96382.03
2023-12-29T07:55:56.535Z,96379.41
2023-12-29T07:58:24.205Z,96383.50
2023-12-29T08:00:52.758Z,96377.78
2023-12-29T08:03:20.432Z,96385.41
2023-12-29T08:05:48.265Z,96396.31
2023-12-29T08:08:17.201Z,96388.88
2023-12-29T08:10:44.916Z,96382.78
2023-12-29T08:13:12.533Z,96388.44
2023-12-29T08:15:40.646Z,96381.63
2023-12-29T08:18:08.362Z,96379.66
2023-12-29T08:20:36.001Z,96386.91
2023-12-29T08:23:04.827Z,96375.84
2023-12-29T08:25:34.261Z,96384.75
2023-12-29T08:28:02.164Z,96390.88
2023-12-29T08:30:30.029Z,96384.94
2023-12-29T08:32:57.643Z,96384.38
2023-12-29T08:35:25.269Z,96380.53
2023-12-29T08:37:52.872Z,96380.31
2023-12-29T08:40:20.814Z,96382.97
2023-12-29T08:42:49.851Z,96386.41
2023-12-29T08:45:17.474Z,96390.25
2023-12-29T08:47:45.104Z,96382.59
2023-12-29T08:50:12.711Z,96380.81
2023-12-29T08:52:40.834Z,96382.75
2023-12-29T08:55:09.039Z,96387.16
2023-12-29T08:57:36.696Z,96379.16
2023-12-29T09:00:06.950Z,96374.44
2023-12-29T09:02:34.519Z,96380.63
2023-12-29T09:05:02.107Z,96385.16
2023-12-29T09:07:30.275Z,96385.97
2023-12-29T09:09:58.618Z,96378.78
2023-12-29T09:12:26.307Z,96387.13
2023-12-29T09:14:53.923Z,96386.41
2023-12-29T09:17:22.851Z,96385.34
2023-12-29T09:19:57.270Z,96381.41
2023-12-29T09:22:31.391Z,96372.13
2023-12-29T09:24:59.404Z,96382.31
2023-12-29T09:27:27.273Z,96379.28
2023-12-29T09:29:54.905Z,96383.13
2023-12-29T09:32:23.899Z,96379.66
2023-12-29T09:34:51.573Z,96384.50
2023-12-29T09:37:20.152Z,96386.34
2023-12-29T09:39:47.764Z,96388.19
2023-12-29T09:42:21.855Z,96390.88
2023-12-29T09:44:52.182Z,96401.53
2023-12-29T09:47:25.361Z,96394.56
2023-12-29T09:49:54.646Z,96394.31
2023-12-29T09:52:23.692Z,96385.53
2023-12-29T09:54:54.318Z,96387.72
2023-12-29T09:57:22.475Z,96382.88
2023-12-29T09:59:52.714Z,96383.66
2023-12-29T10:02:23.218Z,96375.91
2023-12-29T10:04:52.446Z,96383.44
2023-12-29T10:07:27.160Z,96377.88
2023-12-29T10:09:57.452Z,96368.00
2023-12-29T10:12:29.184Z,96365.09
2023-12-29T10:15:04.799Z,96370.78
2023-12-29T10:17:43.544Z,96359.06
2023-12-29T10:20:23.673Z,96364.63
2023-12-29T10:22:56.763Z,96355.53
2023-12-29T10:25:25.722Z,96350.44
2023-12-29T10:27:54.011Z,96352.84
2023-12-29T10:30:28.469Z,96360.03
2023-12-29T10:33:04.314Z,96351.53
2023-12-29T10:35:35.911Z,96352.28
2023-12-29T10:38:13.014Z,96352.28
2023-12-29T10:40:40.978Z,96342.44
2023-12-29T10:43:09.688Z,96351.47
2023-12-29T10:45:38.319Z,96345.59
2023-12-29T10:48:07.850Z,96346.38
2023-12-29T10:50:46.792Z,96339.22
2023-12-29T10:53:15.506Z,96344.63
2023-12-29T10:55:43.134Z,96341.88
2023-12-29T10:58:10.904Z,96340.34
2023-12-29T11:00:38.755Z,96334.22
2023-12-29T11:03:08.194Z,96336.56
2023-12-29T11:05:36.171Z,96324.84
2023-12-29T11:08:17.332Z,96320.56
2023-12-29T11:10:45.246Z,96317.41
2023-12-29T11:13:16.775Z,96321.44
2023-12-29T11:15:47.132Z,96313.22
2023-12-29T11:18:16.101Z,96305.22
2023-12-29T11:20:44.729Z,96304.41
2023-12-29T11:23:14.429Z,96304.41
2023-12-29T11:25:42.395Z,96300.94
2023-12-29T11:28:12.936Z,96294.81
2023-12-29T11:30:40.683Z,96291.34
2023-12-29T11:33:12.692Z,96276.09
2023-12-29T11:35:49.931Z,96288.59
2023-12-29T11:38:35.407Z,96289.63
2023-12-29T11:41:10.589Z,96277.13
2023-12-29T11:43:38.348Z,96285.13
2023-12-29T11:46:05.964Z,96285.13
2023-12-29T11:48:56.171Z,96276.31
2023-12-29T11:51:30.624Z,96284.06
2023-12-29T11:54:00.071Z,96279.00
2023-12-29T11:56:32.758Z,96274.47
2023-12-29T11:59:15.216Z,96271.00
2023-12-29T12:01:43.728Z,96259.53
2023-12-29T12:04:41.894Z,96253.88
2023-12-29T12:07:11.760Z,96261.06
2023-12-29T12:09:40.748Z,96261.88
2023-12-29T12:12:08.396Z,96265.59
2023-12-29T12:14:52.791Z,96255.75
2023-12-29T12:17:31.376Z,96256.47
2023-12-29T12:20:00.540Z,96262.59
2023-12-29T12:22:32.954Z,96255.06
2023-12-29T12:25:04.513Z,96256.94
2023-12-29T12:27:44.796Z,96257.44
2023-12-29T12:30:13.172Z,96254.19
2023-12-29T12:32:40.959Z,96256.63
2023-12-29T12:35:16.951Z,96256.03
2023-12-29T12:37:45.627Z,96253.63
2023-12-29T12:40:26.681Z,96244.59
2023-12-29T12:42:54.447Z,96241.38
2023-12-29T12:45:24.158Z,96236.28
2023-12-29T12:47:54.806Z,96228.31
2023-12-29T12:50:22.998Z,96233.63
2023-12-29T12:52:50.666Z,96228.53
2023-12-29T12:55:20.546Z,96224.25
2023-12-29T12:57:48.358Z,96235.72
2023-12-29T13:00:17.322Z,96229.03
2023-12-29T13:02:47.479Z,96224.19
2023-12-29T13:05:17.836Z,96222.78
2023-12-29T13:07:45.912Z,96226.84
2023-12-29T13:10:13.667Z,96219.09
2023-12-29T13:12:44.359Z,96211.09
2023-12-29T13:15:12.692Z,96211.34
2023-12-29T13:17:40.391Z,96208.69
2023-12-29T13:20:09.324Z,96219.34
2023-12-29T13:22:37.598Z,96215.88
2023-12-29T13:25:08.280Z,96221.44
2023-12-29T13:27:38.697Z,96224.56
2023-12-29T13:30:09.435Z,96222.94
2023-12-29T13:32:39.882Z,96215.75
2023-12-29T13:35:13.747Z,96235.00
2023-12-29T13:37:48.161Z,96216.59
2023-12-29T13:40:19.580Z,96217.38
2023-12-29T13:42:50.773Z,96205.13
2023-12-29T13:45:21.273Z,96210.19
2023-12-29T13:47:49.105Z,96209.66
2023-12-29T13:50:16.815Z,96211.50
2023-12-29T13:52:44.506Z,96218.66
2023-12-29T13:55:12.228Z,96202.13
2023-12-29T13:57:40.079Z,96199.47
2023-12-29T14:00:17.100Z,96199.47
2023-12-29T14:03:03.494Z,96202.13
2023-12-29T14:05:37.434Z,96190.94
2023-12-29T14:08:10.785Z,96192.53
2023-12-29T14:10:39.007Z,96195.69
2023-12-29T14:13:09.124Z,96207.38
2023-12-29T14:15:38.242Z,96217.78
2023-12-29T14:18:24.174Z,96230.31
2023-12-29T14:20:51.941Z,96220.44
2023-12-29T14:23:20.780Z,96203.94
2023-12-29T14:25:49.045Z,96211.09
2023-12-29T14:28:18.416Z,96182.88
2023-12-29T14:30:47.074Z,96200.91
2023-12-29T14:33:16.324Z,96210.22
2023-12-29T14:35:44.111Z,96210.44
2023-12-29T14:38:17.675Z,96214.69
2023-12-29T14:40:46.992Z,96208.81
2023-12-29T14:43:14.696Z,96205.34
2023-12-29T14:45:42.588Z,96206.41
2023-12-29T14:48:10.784Z,96217.28
2023-12-29T14:50:39.763Z,96212.19
2023-12-29T14:53:07.357Z,96208.50
2023-12-29T14:55:35.513Z,96208.75
2023-12-29T14:58:03.384Z,96219.38
2023-12-29T15:00:31.159Z,96204.69
2023-12-29T15:02:58.901Z,96204.69
2023-12-29T15:05:26.630Z,96205.16
2023-12-29T15:07:55.629Z,96197.97
2023-12-29T15:10:23.379Z,96200.88
2023-12-29T15:12:51.199Z,96218.47
2023-12-29T15:15:18.973Z,96212.34
2023-12-29T15:17:46.798Z,96208.06
2023-12-29T15:20:14.581Z,96216.53
2023-12-29T15:22:44.197Z,96218.16
2023-12-29T15:25:13.332Z,96223.72
2023-12-29T15:27:41.022Z,96223.47
2023-12-29T15:30:11.047Z,96222.09
2023-12-29T15:32:38.781Z,96218.94
2023-12-29T15:35:07.798Z,96214.69
2023-12-29T15:37:36.187Z,96214.09
2023-12-29T15:40:04.680Z,96215.97
2023-12-29T15:42:33.625Z,96206.13
2023-12-29T15:45:01.262Z,96206.13
2023-12-29T15:47:40.680Z,96205.31
2023-12-29T15:50:08.511Z,96210.66
2023-12-29T15:52:36.102Z,96201.63
2023-12-29T15:55:03.781Z,96209.03
2023-12-29T15:57:32.897Z,96203.94
2023-12-29T16:00:00.825Z,96203.13
2023-12-29T16:02:28.417Z,96202.34
2023-12-29T16:04:56.566Z,96198.84
2023-12-29T16:07:24.300Z,96203.13
2023-12-29T16:09:51.916Z,96209.84
2023-12-29T16:12:19.514Z,96223.63
2023-12-29T16:14:48.437Z,96221.75
2023-12-29T16:17:16.075Z,96216.44
2023-12-29T16:19:43.794Z,96214.81
2023-12-29T16:22:11.564Z,96209.72
2023-12-29T16:24:39.886Z,96221.44
2023-12-29T16:27:07.491Z,96215.88
2023-12-29T16:29:35.072Z,96225.47
2023-12-29T16:32:04.326Z,96229.19
2023-12-29T16:34:32.152Z,96223.03
2023-12-29T16:37:01.348Z,96212.38
2023-12-29T16:39:29.328Z,96207.91
2023-12-29T16:41:57.268Z,96213.53
2023-12-29T16:44:24.881Z,96208.94
2023-12-29T16:46:53.042Z,96209.97
2023-12-29T16:49:22.134Z,96209.16
2023-12-29T16:51:49.941Z,96209.16
2023-12-29T16:54:17.651Z,96214.13
2023-12-29T16:56:45.223Z,96214.38
2023-12-29T16:59:12.793Z,96208.69
2023-12-29T17:01:40.521Z,96210.09
2023-12-29T17:04:08.212Z,96217.50
2023-12-29T17:06:37.129Z,96214.84
2023-12-29T17:09:04.910Z,96222.00
2023-12-29T17:11:32.574Z,96211.59
2023-12-29T17:14:00.838Z,96215.56
2023-12-29T17:16:30.822Z,96218.44
2023-12-29T17:18:58.768Z,96221.44
2023-12-29T17:21:26.437Z,96219.25
2023-12-29T17:23:55.417Z,96215.56
2023-12-29T17:26:23.040Z,96216.59
2023-12-29T17:28:52.194Z,96215.78
2023-12-29T17:31:19.938Z,96212.34
2023-12-29T17:33:47.626Z,96220.88
2023-12-29T17:36:15.351Z,96207.81
2023-12-29T17:38:43.841Z,96215.22
2023-12-29T17:41:12.817Z,96219.97
2023-12-29T17:43:40.456Z,96227.13
2023-12-29T17:46:08.425Z,96230.84
2023-12-29T17:48:36.699Z,96229.47
2023-12-29T17:51:04.564Z,96243.56
2023-12-29T17:53:32.167Z,96246.47
2023-12-29T17:56:03.332Z,96246.47
2023-12-29T17:58:32.484Z,96247.25
2023-12-29T18:01:00.314Z,96252.25
2023-12-29T18:03:28.006Z,96251.44
2023-12-29T18:05:57.681Z,96240.47
2023-12-29T18:08:25.431Z,96254.81
2023-12-29T18:10:53.012Z,96253.41
2023-12-29T18:13:21.865Z,96246.75
2023-12-29T18:15:51.819Z,96242.47
2023-12-29T18:18:20.412Z,96240.84
2023-12-29T18:20:50.142Z,96239.22
2023-12-29T18:23:17.943Z,96243.72
2023-12-29T18:25:45.720Z,96244.78
2023-12-29T18:28:14.055Z,96250.09
2023-12-29T18:30:41.821Z,96259.09
2023-12-29T18:33:11.020Z,96255.88
2023-12-29T18:35:39.950Z,96255.88
2023-12-29T18:38:07.997Z,96266.75
2023-12-29T18:40:35.758Z,96260.59
2023-12-29T18:43:03.791Z,96257.16
2023-12-29T18:45:31.753Z,96245.72
2023-12-29T18:48:00.301Z,96259.00
2023-12-29T18:50:29.507Z,96262.69
2023-12-29T18:52:57.137Z,96260.84
2023-12-29T18:55:24.882Z,96269.88
2023-12-29T18:57:52.550Z,96266.63
2023-12-29T19:00:20.590Z,96260.75
2023-12-29T19:02:48.383Z,96261.53
2023-12-29T19:05:16.165Z,96257.28
2023-12-29T19:07:45.113Z,96262.38
2023-12-29T19:10:13.140Z,96258.88
2023-12-29T19:12:40.869Z,96263.41
2023-12-29T19:15:09.587Z,96260.97
2023-12-29T19:17:37.221Z,96271.84
2023-12-29T19:20:05.379Z,96265.72
2023-12-29T19:22:33.695Z,96280.03
2023-12-29T19:25:02.882Z,96269.63
2023-12-29T19:27:30.596Z,96274.72
2023-12-29T19:29:58.350Z,96278.44
2023-12-29T19:32:26.038Z,96280.28
2023-12-29T19:34:53.652Z,96275.19
2023-12-29T19:37:21.307Z,96279.94
2023-12-29T19:39:48.961Z,96279.13
2023-12-29T19:42:17.962Z,96278.91
2023-12-29T19:44:45.551Z,96282.13
2023-12-29T19:47:15.073Z,96272.06
2023-12-29T19:49:42.841Z,96273.69
2023-12-29T19:52:11.304Z,96267.91
2023-12-29T19:54:39.039Z,96270.09
2023-12-29T19:57:07.051Z,96270.66
2023-12-29T19:59:35.941Z,96266.97
2023-12-29T20:02:03.637Z,96260.59
2023-12-29T20:04:31.364Z,96272.41
2023-12-29T20:06:59.021Z,96263.38
2023-12-29T20:09:26.695Z,96274.81
2023-12-29T20:11:54.442Z,96270.06
2023-12-29T20:14:22.134Z,96270.91
2023-12-29T20:16:51.055Z,96271.78
2023-12-29T20:19:19.160Z,96263.59
2023-12-29T20:21:47.331Z,96265.69
2023-12-29T20:24:15.915Z,96269.13
2023-12-29T20:26:43.526Z,96270.53
2023-12-29T20:29:12.560Z,96269.22
2023-12-29T20:31:40.197Z,96272.13
2023-12-29T20:34:09.195Z,96264.38
2023-12-29T20:36:36.800Z,96267.63
2023-12-29T20:39:04.740Z,96264.97
2023-12-29T20:41:32.352Z,96264.16
2023-12-29T20:44:00.460Z,96263.34
2023-12-29T20:46:28.662Z,96264.16
2023-12-29T20:48:56.710Z,96266.81
2023-12-29T20:51:27.632Z,96265.78
2023-12-29T20:53:55.236Z,96261.25
2023-12-29T20:56:24.620Z,96263.59
2023-12-29T20:58:54.761Z,96265.22
2023-12-29T21:01:24.544Z,96275.84
2023-12-29T21:03:55.221Z,96272.97
2023-12-29T21:06:23.039Z,96264.16
2023-12-29T21:08:52.100Z,96260.69
2023-12-29T21:11:20.527Z,96267.88
2023-12-29T21:13:48.544Z,96268.66
2023-12-29T21:16:17.069Z,96266.00
2023-12-29T21:18:45.581Z,96272.97
2023-12-29T21:21:13.414Z,96264.16
2023-12-29T21:23:41.216Z,96266.47
2023-12-29T21:26:10.833Z,96267.50
2023-12-29T21:28:38.481Z,96262.19
2023-12-29T21:31:06.303Z,96261.97
2023-12-29T21:33:33.974Z,96271.22
2023-12-29T21:36:01.564Z,96261.63
2023-12-29T21:38:29.156Z,96266.94
2023-12-29T21:40:56.731Z,96269.38
2023-12-29T21:43:25.664Z,96265.59
2023-12-29T21:45:53.270Z,96264.53
2023-12-29T21:48:21.013Z,96258.41
2023-12-29T21:50:48.735Z,96266.38
2023-12-29T21:53:16.472Z,96263.16
2023-12-29T21:55:44.678Z,96275.38
2023-12-29T21:58:13.544Z,96263.38
2023-12-29T22:00:43.110Z,96262.56
2023-12-29T22:03:12.372Z,96274.03
2023-12-29T22:05:40.048Z,96268.94
2023-12-29T22:08:08.001Z,96276.31
2023-12-29T22:10:36.052Z,96273.66
2023-12-29T22:13:04.220Z,96278.97
2023-12-29T22:15:32.107Z,96278.19
2023-12-29T22:18:01.147Z,96276.56
2023-12-29T22:20:28.804Z,96278.19
2023-12-29T22:22:57.461Z,96289.28
2023-12-29T22:25:27.548Z,96287.88
2023-12-29T22:27:55.715Z,96284.44
2023-12-29T22:30:23.371Z,96291.84
2023-12-29T22:32:51.057Z,96289.19
2023-12-29T22:35:20.134Z,96291.84
2023-12-29T22:37:49.945Z,96294.72
2023-12-29T22:40:17.656Z,96291.25
2023-12-29T22:42:46.561Z,96287.56
2023-12-29T22:45:14.411Z,96284.09
2023-12-29T22:47:42.000Z,96285.34
2023-12-29T22:50:09.847Z,96290.66
2023-12-29T22:52:38.875Z,96290.66
2023-12-29T22:55:06.900Z,96287.22
2023-12-29T22:57:34.489Z,96291.72
2023-12-29T23:00:02.116Z,96282.13
2023-12-29T23:02:31.496Z,96292.75
2023-12-29T23:04:59.198Z,96288.72
2023-12-29T23:07:26.346Z,96296.69
2023-12-29T23:09:55.307Z,96291.59
2023-12-29T23:12:22.893Z,96285.47
2023-12-29T23:14:50.489Z,96280.16
2023-12-29T23:17:18.367Z,96280.97
2023-12-29T23:19:45.983Z,96282.03
2023-12-29T23:22:13.787Z,96288.38
2023-12-29T23:24:41.484Z,96286.97
2023-12-29T23:27:10.471Z,96279.00
2023-12-29T23:29:40.267Z,96272.88
2023-12-29T23:32:08.799Z,96274.75
2023-12-29T23:34:36.651Z,96281.91
2023-12-29T23:37:04.392Z,96280.28
2023-12-29T23:39:33.599Z,96282.34
2023-12-29T23:42:01.319Z,96286.88
2023-12-29T23:44:30.268Z,96281.56
2023-12-29T23:46:58.407Z,96292.97
2023-12-29T23:49:28.713Z,96293.22
2023-12-29T23:51:56.352Z,96290.00
2023-12-29T23:54:24.171Z,96294.28
2023-12-29T23:56:51.838Z,96299.00
2023-12-29T23:59:19.442Z,96297.16
